Time;durP1;ratioP1;P1;durP2;ratioP2;P2;SDS_P1;SDS_P2;PMS_P1;PMS_P2;Temp;Humidity;BMP_temperature;BMP_pressure;BME280_temperature;BME280_humidity;BME280_pressure;Samples;Min_cycle;Max_cycle;Signal;HPM_P1;HPM_P2
2022/10/29 00:02:03;;;;;;;0.00;0.00;;;12.50;99.90;;;;;;5077283;28;20028;-91
2022/10/29 00:04:28;;;;;;;0.43;0.28;;;11.90;99.90;;;;;;5059139;28;20028;-89
2022/10/29 00:06:54;;;;;;;0.40;0.17;;;12.30;99.90;;;;;;5079158;28;20036;-89
2022/10/29 00:09:20;;;;;;;0.00;0.00;;;12.50;99.90;;;;;;5062425;28;20095;-90
2022/10/29 00:11:45;;;;;;;2.47;1.20;;;11.50;99.90;;;;;;5062397;28;20025;-90
2022/10/29 00:14:11;;;;;;;0.13;0.10;;;11.40;99.90;;;;;;5062081;28;20111;-89
2022/10/29 00:16:38;;;;;;;0.22;0.22;;;11.50;99.90;;;;;;5079123;28;20024;-89
2022/10/29 00:19:04;;;;;;;0.10;0.10;;;11.00;99.90;;;;;;5076336;22;20064;-73
2022/10/29 00:21:33;;;;;;;1.00;0.60;;;11.40;99.90;;;;;;5053572;28;20875;-73
2022/10/29 00:23:59;;;;;;;2.90;1.33;;;11.40;99.90;;;;;;5052474;28;20037;-73
2022/10/29 00:26:27;;;;;;;0.03;0.03;;;11.30;99.90;;;;;;5054107;28;20045;-73
2022/10/29 00:28:55;;;;;;;0.00;0.00;;;11.20;99.90;;;;;;5054980;28;20076;-76
2022/10/29 00:31:24;;;;;;;1.55;0.70;;;11.20;99.90;;;;;;5053092;28;20049;-73
2022/10/29 00:33:50;;;;;;;0.65;0.65;;;11.10;99.90;;;;;;5052240;28;20519;-73
2022/10/29 00:36:22;;;;;;;0.20;0.17;;;11.10;99.90;;;;;;5053271;28;20404;-75
2022/10/29 00:38:48;;;;;;;0.10;0.10;;;11.00;99.90;;;;;;5052882;28;20598;-73
2022/10/29 00:41:18;;;;;;;0.00;0.00;;;11.00;99.90;;;;;;5052428;28;20062;-76
2022/10/29 00:43:49;;;;;;;0.10;0.08;;;11.00;99.90;;;;;;5053538;28;20059;-74
2022/10/29 00:46:31;;;;;;;0.40;0.30;;;10.90;99.90;;;;;;5052895;28;20044;-75
2022/10/29 00:48:59;;;;;;;2.13;1.02;;;10.90;99.90;;;;;;5053120;28;20475;-75
2022/10/29 00:51:25;;;;;;;7.97;0.75;;;10.90;99.90;;;;;;5052918;28;20549;-74
2022/10/29 00:54:07;;;;;;;0.10;0.10;;;10.90;99.90;;;;;;5053479;28;20048;-74
2022/10/29 00:56:36;;;;;;;0.10;0.10;;;11.00;99.90;;;;;;5033658;28;20094;-75
2022/10/29 00:59:04;;;;;;;0.75;0.30;;;11.00;99.90;;;;;;5032915;28;20041;-73
2022/10/29 01:01:30;;;;;;;0.05;0.05;;;10.90;99.90;;;;;;5032333;28;20059;-74
2022/10/29 01:03:58;;;;;;;0.00;0.00;;;10.70;99.90;;;;;;5032671;28;20101;-75
2022/10/29 01:06:27;;;;;;;0.00;0.00;;;11.80;99.90;;;;;;5031960;28;20734;-75
2022/10/29 01:08:52;;;;;;;0.00;0.00;;;10.60;99.90;;;;;;5030469;28;20052;-74
2022/10/29 01:11:18;;;;;;;0.88;0.75;;;10.50;99.90;;;;;;5032258;28;20045;-75
2022/10/29 01:14:01;;;;;;;0.00;0.00;;;10.50;99.90;;;;;;5032692;28;20056;-72
2022/10/29 01:16:56;;;;;;;0.52;0.52;;;10.50;99.90;;;;;;5031567;28;20081;-74
2022/10/29 01:20:03;;;;;;;0.65;0.40;;;10.50;99.90;;;;;;5030155;28;20049;-75
2022/10/29 01:22:40;;;;;;;0.10;0.03;;;10.40;99.90;;;;;;5030994;28;20507;-75
2022/10/29 01:25:05;;;;;;;0.10;0.10;;;10.30;99.90;;;;;;5031358;28;20576;-73
2022/10/29 01:27:41;;;;;;;0.80;0.80;;;10.30;99.90;;;;;;5031236;28;20164;-73
2022/10/29 01:30:19;;;;;;;0.35;0.17;;;10.30;99.90;;;;;;5030341;28;20053;-73
2022/10/29 01:33:12;;;;;;;0.10;0.10;;;10.20;99.90;;;;;;5031278;28;20048;-72
2022/10/29 01:35:38;;;;;;;0.03;0.03;;;10.20;99.90;;;;;;5030572;28;20051;-73
2022/10/29 01:38:28;;;;;;;0.00;0.00;;;10.10;99.90;;;;;;5031094;28;20054;-75
2022/10/29 01:40:59;;;;;;;0.35;0.35;;;10.20;99.90;;;;;;5030104;28;20049;-73
2022/10/29 01:43:42;;;;;;;0.00;0.00;;;10.10;99.90;;;;;;5029417;28;20139;-74
2022/10/29 01:46:35;;;;;;;0.75;0.65;;;10.20;99.90;;;;;;5030203;28;20590;-74
2022/10/29 01:49:05;;;;;;;0.08;0.08;;;10.20;99.90;;;;;;5030016;28;20502;-73
2022/10/29 01:51:34;;;;;;;0.65;0.55;;;10.20;99.90;;;;;;5030326;28;20123;-75
2022/10/29 01:54:01;;;;;;;0.08;0.08;;;10.20;99.90;;;;;;5030343;28;20037;-73
2022/10/29 01:56:26;;;;;;;0.52;0.13;;;10.10;99.90;;;;;;5029631;28;20053;-72
2022/10/29 01:58:57;;;;;;;0.20;0.10;;;10.20;99.90;;;;;;5030508;28;20063;-72
2022/10/29 02:01:50;;;;;;;0.13;0.10;;;10.10;99.90;;;;;;5028449;28;20124;-72
2022/10/29 02:04:36;;;;;;;0.03;0.03;;;10.10;99.90;;;;;;5030262;28;20045;-75
2022/10/29 02:07:33;;;;;;;0.00;0.00;;;10.00;99.90;;;;;;5030668;28;20045;-74
2022/10/29 02:10:15;;;;;;;0.30;0.20;;;10.00;99.90;;;;;;5029589;28;20512;-73
2022/10/29 02:12:50;;;;;;;0.00;0.00;;;10.00;99.90;;;;;;5029768;28;20128;-72
2022/10/29 02:15:41;;;;;;;0.00;0.00;;;10.00;99.90;;;;;;5029676;28;20058;-71
2022/10/29 02:18:07;;;;;;;0.38;0.30;;;10.00;99.90;;;;;;5030093;28;20065;-74
2022/10/29 02:20:33;;;;;;;0.00;0.00;;;9.90;99.90;;;;;;5028293;28;20420;-73
2022/10/29 02:22:59;;;;;;;0.10;0.10;;;9.80;99.90;;;;;;5029094;28;20080;-72
2022/10/29 02:25:27;;;;;;;0.63;0.63;;;9.90;99.90;;;;;;5029810;28;20053;-72
2022/10/29 02:27:52;;;;;;;0.00;0.00;;;9.90;99.90;;;;;;5028620;28;20042;-71
2022/10/29 02:30:18;;;;;;;0.10;0.10;;;9.80;99.90;;;;;;5028562;28;20045;-74
2022/10/29 02:32:44;;;;;;;0.98;0.38;;;9.80;99.90;;;;;;5028080;28;20053;-74
2022/10/29 02:35:10;;;;;;;0.25;0.20;;;9.80;99.90;;;;;;5028846;28;20095;-73
2022/10/29 02:37:36;;;;;;;0.40;0.38;;;9.80;99.90;;;;;;5028824;28;20080;-73
2022/10/29 02:40:03;;;;;;;0.10;0.10;;;9.80;99.90;;;;;;5029171;28;20092;-72
2022/10/29 02:42:28;;;;;;;12.95;0.47;;;9.80;99.90;;;;;;5029169;28;20037;-73
2022/10/29 02:44:54;;;;;;;1.45;0.43;;;9.80;99.90;;;;;;5028488;28;20566;-73
2022/10/29 02:47:19;;;;;;;0.80;0.43;;;9.90;99.90;;;;;;5028243;28;20050;-72
2022/10/29 02:49:45;;;;;;;0.03;0.03;;;9.80;99.90;;;;;;5028275;28;20581;-72
2022/10/29 02:52:10;;;;;;;0.28;0.10;;;9.80;99.90;;;;;;5028234;28;20045;-72
2022/10/29 02:54:38;;;;;;;0.00;0.00;;;9.80;99.90;;;;;;5028334;28;20354;-73
2022/10/29 02:57:03;;;;;;;0.28;0.28;;;9.80;99.90;;;;;;5028079;28;20073;-71
2022/10/29 02:59:29;;;;;;;0.05;0.05;;;9.80;99.90;;;;;;5028031;28;20982;-72
2022/10/29 03:01:55;;;;;;;0.38;0.30;;;9.90;99.90;;;;;;5028356;28;20132;-72
2022/10/29 03:04:20;;;;;;;0.00;0.00;;;9.90;99.90;;;;;;5028203;28;20053;-72
2022/10/29 03:06:46;;;;;;;0.35;0.32;;;10.00;99.90;;;;;;5028489;28;20038;-72
2022/10/29 03:09:12;;;;;;;0.00;0.00;;;10.10;99.90;;;;;;5028660;28;20073;-71
2022/10/29 03:11:37;;;;;;;0.32;0.22;;;10.10;99.90;;;;;;5028393;28;20116;-73
2022/10/29 03:14:03;;;;;;;0.55;0.40;;;10.30;99.90;;;;;;5028477;28;20065;-72
2022/10/29 03:16:29;;;;;;;0.20;0.20;;;10.40;99.90;;;;;;5029410;28;20059;-72
2022/10/29 03:18:54;;;;;;;0.00;0.00;;;10.50;99.90;;;;;;5028362;28;20126;-73
2022/10/29 03:21:20;;;;;;;0.30;0.10;;;10.50;99.90;;;;;;5028599;28;20056;-74
2022/10/29 03:23:45;;;;;;;0.30;0.28;;;10.70;99.90;;;;;;5028172;28;20041;-73
2022/10/29 03:26:11;;;;;;;0.40;0.32;;;10.80;99.90;;;;;;5028416;28;20496;-73
2022/10/29 03:28:37;;;;;;;0.00;0.00;;;10.90;99.90;;;;;;5028991;28;20042;-73
2022/10/29 03:31:03;;;;;;;0.38;0.30;;;10.90;99.90;;;;;;5028800;28;20872;-72
2022/10/29 03:33:29;;;;;;;0.15;0.13;;;11.00;99.90;;;;;;5028569;28;20076;-74
2022/10/29 03:35:56;;;;;;;0.75;0.15;;;11.10;99.90;;;;;;5028682;28;20053;-74
2022/10/29 03:38:22;;;;;;;0.38;0.35;;;11.20;99.90;;;;;;5028186;28;20049;-73
2022/10/29 03:40:48;;;;;;;0.80;0.63;;;11.20;99.90;;;;;;5028128;28;20056;-72
2022/10/29 03:43:13;;;;;;;0.00;0.00;;;11.30;99.90;;;;;;5028672;28;20100;-74
2022/10/29 03:45:39;;;;;;;0.38;0.17;;;11.40;99.90;;;;;;5028675;28;20042;-74
2022/10/29 03:48:05;;;;;;;0.55;0.40;;;11.40;99.90;;;;;;5027927;28;20463;-73
2022/10/29 03:50:31;;;;;;;0.75;0.57;;;11.50;99.90;;;;;;5028083;28;20067;-72
2022/10/29 03:52:56;;;;;;;1.13;0.52;;;11.50;99.90;;;;;;5027444;28;20056;-72
2022/10/29 03:55:22;;;;;;;1.23;0.70;;;11.50;99.90;;;;;;5028775;28;20184;-73
2022/10/29 03:57:47;;;;;;;0.75;0.75;;;11.60;99.90;;;;;;5029129;28;20057;-72
2022/10/29 04:00:14;;;;;;;0.50;0.30;;;11.60;99.90;;;;;;5028452;28;20750;-73
2022/10/29 04:02:40;;;;;;;1.38;1.05;;;11.60;99.90;;;;;;5029528;28;20061;-74
2022/10/29 04:05:06;;;;;;;0.00;0.00;;;11.60;99.90;;;;;;5028642;28;20106;-71
2022/10/29 04:07:31;;;;;;;0.30;0.30;;;11.70;99.90;;;;;;5029849;28;20079;-72
2022/10/29 04:09:57;;;;;;;0.22;0.13;;;11.70;99.90;;;;;;5029248;28;20489;-73
2022/10/29 04:12:23;;;;;;;0.68;0.68;;;11.70;99.90;;;;;;5028814;28;20050;-71
2022/10/29 04:14:48;;;;;;;0.30;0.20;;;11.70;99.90;;;;;;5028300;28;20054;-72
2022/10/29 04:17:14;;;;;;;0.05;0.05;;;11.70;99.90;;;;;;5032048;28;20045;-72
2022/10/29 04:19:40;;;;;;;0.30;0.22;;;11.70;99.90;;;;;;5032302;28;20083;-72
2022/10/29 04:22:05;;;;;;;0.20;0.20;;;11.80;99.90;;;;;;5032106;28;20463;-72
2022/10/29 04:24:31;;;;;;;0.20;0.15;;;11.80;99.90;;;;;;5032921;28;20033;-71
2022/10/29 04:26:57;;;;;;;1.05;0.95;;;11.80;99.90;;;;;;5032677;28;20049;-74
2022/10/29 04:29:22;;;;;;;1.85;0.55;;;11.80;99.90;;;;;;5032373;28;20045;-72
2022/10/29 04:31:48;;;;;;;0.35;0.30;;;11.80;99.90;;;;;;5032989;28;20041;-73
2022/10/29 04:34:14;;;;;;;3.03;0.73;;;11.90;99.90;;;;;;5032169;28;20123;-74
2022/10/29 04:36:39;;;;;;;0.10;0.10;;;11.90;99.90;;;;;;5032282;28;20173;-71
2022/10/29 04:39:05;;;;;;;0.10;0.10;;;11.90;99.90;;;;;;5032577;28;20046;-72
2022/10/29 04:41:30;;;;;;;0.10;0.10;;;12.00;99.90;;;;;;5031259;28;20072;-72
2022/10/29 04:43:56;;;;;;;0.40;0.38;;;12.00;99.90;;;;;;5033239;28;20045;-72
2022/10/29 04:46:22;;;;;;;1.60;0.65;;;12.00;99.90;;;;;;5032920;28;20124;-76
2022/10/29 04:48:48;;;;;;;2.03;0.98;;;12.00;99.90;;;;;;5032422;28;20041;-75
2022/10/29 04:51:24;;;;;;;4.38;0.45;;;12.00;99.90;;;;;;5029618;28;20091;-73
2022/10/29 04:53:50;;;;;;;1.45;0.70;;;12.00;99.90;;;;;;5031660;28;20041;-74
2022/10/29 04:56:16;;;;;;;2.08;0.85;;;12.10;99.90;;;;;;5032527;28;20053;-74
2022/10/29 04:58:42;;;;;;;0.85;0.30;;;12.10;99.90;;;;;;5031042;28;20059;-74
2022/10/29 05:01:08;;;;;;;0.15;0.15;;;12.10;99.90;;;;;;5031253;28;20560;-73
2022/10/29 05:03:34;;;;;;;0.95;0.50;;;12.10;99.90;;;;;;5031521;28;20049;-73
2022/10/29 05:06:04;;;;;;;3.92;0.93;;;12.10;99.90;;;;;;5031004;28;20056;-73
2022/10/29 05:08:29;;;;;;;0.20;0.20;;;12.10;99.90;;;;;;5031522;28;20124;-75
2022/10/29 05:10:55;;;;;;;1.63;0.60;;;12.10;99.90;;;;;;5032904;28;20085;-75
2022/10/29 05:13:21;;;;;;;0.75;0.55;;;12.10;99.90;;;;;;5034645;28;20056;-74
2022/10/29 05:15:50;;;;;;;0.70;0.60;;;12.10;99.90;;;;;;5034520;28;20045;-75
2022/10/29 05:18:16;;;;;;;0.47;0.47;;;12.10;99.90;;;;;;5029656;28;20148;-74
2022/10/29 05:20:42;;;;;;;0.45;0.35;;;12.10;99.90;;;;;;5015500;28;20069;-74
2022/10/29 05:23:10;;;;;;;3.33;0.93;;;12.20;99.90;;;;;;5032029;28;20140;-73
2022/10/29 05:25:38;;;;;;;8.98;1.13;;;12.10;99.90;;;;;;5032568;28;20124;-75
2022/10/29 05:28:06;;;;;;;0.70;0.57;;;12.20;99.90;;;;;;5033385;28;20053;-74
2022/10/29 05:30:32;;;;;;;0.15;0.15;;;12.20;99.90;;;;;;5033573;28;20053;-73
2022/10/29 05:32:58;;;;;;;0.00;0.00;;;12.30;99.90;;;;;;5033183;28;20061;-75
2022/10/29 05:35:24;;;;;;;0.75;0.55;;;12.30;99.90;;;;;;5032501;28;20056;-74
2022/10/29 05:37:51;;;;;;;1.65;0.70;;;12.30;99.90;;;;;;5034838;28;20547;-74
2022/10/29 05:40:17;;;;;;;1.17;1.08;;;12.30;99.90;;;;;;5033861;28;20049;-76
2022/10/29 05:42:44;;;;;;;0.22;0.22;;;12.30;99.90;;;;;;5033043;28;20104;-74
2022/10/29 05:45:09;;;;;;;1.08;0.95;;;12.30;99.90;;;;;;5033441;28;20453;-75
2022/10/29 05:47:35;;;;;;;0.20;0.20;;;12.40;99.90;;;;;;5033250;28;20137;-74
2022/10/29 05:50:01;;;;;;;0.00;0.00;;;12.40;99.90;;;;;;5034384;28;20042;-74
2022/10/29 05:52:26;;;;;;;1.90;1.67;;;12.40;99.90;;;;;;5033185;28;20077;-74
2022/10/29 05:54:52;;;;;;;0.80;0.47;;;12.50;99.90;;;;;;5034257;28;20033;-74
2022/10/29 05:57:19;;;;;;;0.85;0.60;;;12.50;99.90;;;;;;5033224;28;20049;-75
2022/10/29 05:59:45;;;;;;;0.20;0.15;;;12.50;99.90;;;;;;5033373;28;20550;-74
2022/10/29 06:02:11;;;;;;;0.10;0.08;;;12.50;99.90;;;;;;5024808;28;20050;-75
2022/10/29 06:04:36;;;;;;;0.43;0.43;;;12.40;99.90;;;;;;5013974;28;20057;-75
2022/10/29 06:07:02;;;;;;;1.63;0.85;;;12.50;99.90;;;;;;5013049;28;20093;-74
2022/10/29 06:09:28;;;;;;;0.32;0.32;;;12.50;99.90;;;;;;5013698;28;20095;-74
2022/10/29 06:11:54;;;;;;;1.13;0.75;;;12.50;99.90;;;;;;5013494;28;20157;-73
2022/10/29 06:14:20;;;;;;;0.10;0.10;;;12.50;99.90;;;;;;5012619;28;20108;-75
2022/10/29 06:16:45;;;;;;;0.00;0.00;;;12.40;99.90;;;;;;5014870;28;20097;-75
2022/10/29 06:19:11;;;;;;;0.85;0.70;;;12.50;99.90;;;;;;5015049;28;20145;-75
2022/10/29 06:21:37;;;;;;;1.30;0.55;;;12.50;99.90;;;;;;5031066;28;20198;-75
2022/10/29 06:24:03;;;;;;;0.73;0.45;;;12.50;99.90;;;;;;5033507;28;20077;-74
2022/10/29 06:26:28;;;;;;;0.70;0.40;;;12.50;99.90;;;;;;5033261;28;20045;-75
2022/10/29 06:28:54;;;;;;;0.98;0.73;;;12.50;99.90;;;;;;5033718;28;20073;-74
2022/10/29 06:31:20;;;;;;;2.40;1.38;;;12.50;99.90;;;;;;5033522;28;20241;-76
2022/10/29 06:33:46;;;;;;;0.90;0.40;;;12.50;99.90;;;;;;5035440;28;20133;-75
2022/10/29 06:36:11;;;;;;;2.40;0.63;;;12.60;99.90;;;;;;5033462;28;20080;-74
2022/10/29 06:38:37;;;;;;;0.98;0.50;;;12.60;99.90;;;;;;5033399;28;20109;-74
2022/10/29 06:41:03;;;;;;;0.93;0.77;;;12.60;99.90;;;;;;5029809;28;20050;-76
2022/10/29 06:43:29;;;;;;;1.17;0.93;;;12.60;99.90;;;;;;5030033;28;20038;-75
2022/10/29 06:45:54;;;;;;;0.60;0.60;;;12.70;99.90;;;;;;5030051;28;20056;-73
2022/10/29 06:48:20;;;;;;;0.60;0.60;;;12.80;99.90;;;;;;5030848;28;20045;-74
2022/10/29 06:50:45;;;;;;;1.27;0.85;;;12.80;99.90;;;;;;5031894;28;20321;-76
2022/10/29 06:53:13;;;;;;;3.03;0.85;;;12.80;99.90;;;;;;5030908;28;20045;-75
2022/10/29 06:55:39;;;;;;;0.95;0.55;;;13.00;99.90;;;;;;5031072;28;20534;-76
2022/10/29 06:58:16;;;;;;;0.95;0.75;;;12.90;99.90;;;;;;5031767;28;20054;-75
2022/10/29 07:00:42;;;;;;;2.60;0.68;;;12.90;99.90;;;;;;5030276;28;20552;-74
2022/10/29 07:03:16;;;;;;;0.95;0.65;;;12.90;99.90;;;;;;5030484;28;20419;-76
2022/10/29 07:05:42;;;;;;;0.80;0.57;;;12.90;99.90;;;;;;5029902;28;20115;-74
2022/10/29 07:08:08;;;;;;;0.93;0.60;;;13.00;99.90;;;;;;5030099;28;20038;-75
2022/10/29 07:10:33;;;;;;;1.20;0.90;;;13.00;99.90;;;;;;5030295;28;20097;-75
2022/10/29 07:12:59;;;;;;;0.30;0.30;;;13.00;99.90;;;;;;5031347;28;20041;-74
2022/10/29 07:15:26;;;;;;;1.60;0.80;;;13.10;99.90;;;;;;5031470;28;20083;-75
2022/10/29 07:18:03;;;;;;;0.52;0.52;;;13.10;99.90;;;;;;5029784;28;20432;-75
2022/10/29 07:20:32;;;;;;;0.95;0.88;;;13.10;99.90;;;;;;5028581;28;20122;-75
2022/10/29 07:23:00;;;;;;;1.52;1.33;;;13.10;99.90;;;;;;5028685;28;20536;-74
2022/10/29 07:25:26;;;;;;;4.63;1.65;;;13.10;99.90;;;;;;5029968;28;20067;-75
2022/10/29 07:27:52;;;;;;;5.82;1.00;;;13.10;99.90;;;;;;5031497;28;20061;-76
2022/10/29 07:30:18;;;;;;;2.53;1.20;;;13.10;99.90;;;;;;5031302;28;20041;-74
2022/10/29 07:32:44;;;;;;;0.85;0.50;;;13.10;99.90;;;;;;5028909;28;20045;-74
2022/10/29 07:35:10;;;;;;;1.83;1.70;;;13.10;99.90;;;;;;5027522;28;20098;-74
2022/10/29 07:37:36;;;;;;;1.52;1.23;;;13.10;99.90;;;;;;5031108;28;20052;-74
2022/10/29 07:40:03;;;;;;;2.92;2.28;;;13.10;99.90;;;;;;5012504;28;20128;-73
2022/10/29 07:42:28;;;;;;;0.20;0.20;;;13.10;99.90;;;;;;5029306;28;20501;-74
2022/10/29 07:44:54;;;;;;;2.20;1.77;;;13.20;99.90;;;;;;5029667;28;20045;-74
2022/10/29 07:47:20;;;;;;;3.10;1.33;;;13.10;99.90;;;;;;5030024;28;20085;-74
2022/10/29 07:49:46;;;;;;;1.60;1.00;;;13.20;99.90;;;;;;5029579;28;20129;-76
2022/10/29 07:52:11;;;;;;;2.03;1.17;;;13.20;99.90;;;;;;5031932;28;20104;-76
2022/10/29 07:54:37;;;;;;;2.20;1.63;;;13.20;99.90;;;;;;5031310;28;20038;-74
2022/10/29 07:57:03;;;;;;;5.25;2.17;;;13.20;99.90;;;;;;5031788;28;20045;-75
2022/10/29 07:59:29;;;;;;;3.65;1.75;;;13.20;99.90;;;;;;5030849;28;20103;-74
2022/10/29 08:01:55;;;;;;;3.78;1.55;;;13.20;99.90;;;;;;5032791;28;20496;-74
2022/10/29 08:04:20;;;;;;;2.30;1.65;;;13.20;99.90;;;;;;5033421;28;20111;-73
2022/10/29 08:06:46;;;;;;;2.65;1.02;;;13.20;99.90;;;;;;5031552;28;20126;-75
2022/10/29 08:09:13;;;;;;;1.40;1.02;;;13.20;99.90;;;;;;5032845;28;20092;-74
2022/10/29 08:11:39;;;;;;;2.00;1.65;;;13.20;99.90;;;;;;5032204;28;20044;-74
2022/10/29 08:14:05;;;;;;;2.95;1.45;;;13.20;99.90;;;;;;5032898;28;20443;-76
2022/10/29 08:16:31;;;;;;;6.32;2.45;;;13.70;99.90;;;;;;5033118;28;20052;-74
2022/10/29 08:18:57;;;;;;;3.67;1.50;;;13.20;99.90;;;;;;5032449;28;20057;-75
2022/10/29 08:21:23;;;;;;;0.60;0.50;;;13.30;99.90;;;;;;5030918;28;20049;-75
2022/10/29 08:23:49;;;;;;;1.25;1.02;;;13.40;99.90;;;;;;5014674;28;20064;-74
2022/10/29 08:26:14;;;;;;;1.23;0.98;;;13.50;99.90;;;;;;5032414;28;20038;-73
2022/10/29 08:28:41;;;;;;;1.63;1.25;;;13.60;99.90;;;;;;5031473;28;20116;-73
2022/10/29 08:31:07;;;;;;;1.33;1.08;;;13.70;99.90;;;;;;5031333;28;20061;-75
2022/10/29 08:33:33;;;;;;;2.10;1.30;;;13.70;99.90;;;;;;5030513;28;20037;-74
2022/10/29 08:35:59;;;;;;;6.30;1.95;;;13.70;99.90;;;;;;5031088;28;20060;-74
2022/10/29 08:38:25;;;;;;;4.35;2.45;;;13.80;99.90;;;;;;5030253;28;20057;-74
2022/10/29 08:41:02;;;;;;;1.70;0.98;;;13.80;99.90;;;;;;5029996;28;20040;-74
2022/10/29 08:43:52;;;;;;;0.68;0.50;;;13.80;99.90;;;;;;5031031;28;20498;-74
2022/10/29 08:46:33;;;;;;;2.00;1.55;;;13.90;99.90;;;;;;5029440;28;20045;-75
2022/10/29 08:49:05;;;;;;;2.60;0.80;;;13.90;99.90;;;;;;5028417;28;20077;-74
2022/10/29 08:51:39;;;;;;;0.25;0.25;;;13.90;99.90;;;;;;5029509;28;20065;-76
2022/10/29 08:54:12;;;;;;;0.43;0.40;;;14.00;99.90;;;;;;5028395;28;20045;-74
2022/10/29 08:56:41;;;;;;;0.20;0.20;;;14.00;99.90;;;;;;5029036;28;20076;-74
2022/10/29 08:59:09;;;;;;;0.03;0.03;;;14.10;99.90;;;;;;5027708;28;20057;-75
2022/10/29 09:01:36;;;;;;;0.60;0.52;;;14.20;99.90;;;;;;5027359;28;20049;-74
2022/10/29 09:04:10;;;;;;;1.02;0.95;;;14.20;99.90;;;;;;5027465;28;20054;-74
2022/10/29 09:06:44;;;;;;;3.25;0.88;;;14.40;99.90;;;;;;5026151;28;20049;-76
2022/10/29 09:09:33;;;;;;;1.35;1.25;;;14.40;99.90;;;;;;5027566;28;20049;-73
2022/10/29 09:12:14;;;;;;;2.03;1.27;;;14.60;99.90;;;;;;5027208;28;20084;-76
2022/10/29 09:15:01;;;;;;;1.00;0.73;;;14.70;99.90;;;;;;5027470;28;20447;-75
2022/10/29 09:17:42;;;;;;;0.70;0.70;;;14.80;99.90;;;;;;5026180;28;20357;-75
2022/10/29 09:20:39;;;;;;;3.70;1.85;;;14.80;99.90;;;;;;5027047;28;20045;-76
2022/10/29 09:23:14;;;;;;;1.02;0.57;;;14.80;99.90;;;;;;5026727;28;20049;-75
2022/10/29 09:25:54;;;;;;;2.85;1.80;;;14.80;99.90;;;;;;5027415;28;20174;-73
2022/10/29 09:28:26;;;;;;;1.27;0.40;;;14.80;99.90;;;;;;5026431;28;20049;-75
2022/10/29 09:31:08;;;;;;;0.63;0.57;;;14.80;99.90;;;;;;5026012;28;20634;-75
2022/10/29 09:33:34;;;;;;;1.27;1.17;;;14.90;99.90;;;;;;5025860;28;20053;-75
2022/10/29 09:36:00;;;;;;;2.38;1.80;;;15.00;99.90;;;;;;5026471;28;20050;-73
2022/10/29 09:38:35;;;;;;;1.20;1.05;;;15.00;99.90;;;;;;5025503;28;20089;-73
2022/10/29 09:41:02;;;;;;;3.53;1.85;;;15.00;99.90;;;;;;5025710;28;20513;-75
2022/10/29 09:43:37;;;;;;;1.65;1.45;;;15.00;99.90;;;;;;5025666;28;20060;-74
2022/10/29 09:46:35;;;;;;;1.07;0.90;;;15.00;99.90;;;;;;5025340;28;20391;-73
2022/10/29 09:49:29;;;;;;;1.33;1.23;;;15.00;99.90;;;;;;5007979;28;20335;-76
2022/10/29 09:52:20;;;;;;;2.28;1.55;;;14.90;99.90;;;;;;5024827;28;20474;-75
2022/10/29 09:54:49;;;;;;;1.15;0.88;;;14.80;99.90;;;;;;5025287;28;20041;-74
2022/10/29 09:57:24;;;;;;;0.95;0.80;;;14.90;99.90;;;;;;5024005;28;20041;-74
2022/10/29 09:59:58;;;;;;;1.40;0.50;;;14.90;99.90;;;;;;5024920;28;20446;-75
2022/10/29 10:02:32;;;;;;;2.85;1.73;;;14.90;99.90;;;;;;5024501;28;20492;-74
2022/10/29 10:05:11;;;;;;;1.60;0.85;;;15.00;99.90;;;;;;5023356;28;20072;-75
2022/10/29 10:07:37;;;;;;;2.30;1.42;;;15.10;99.90;;;;;;5022975;28;20523;-74
2022/10/29 10:10:05;;;;;;;1.17;0.95;;;15.20;99.90;;;;;;5023523;28;20038;-74
2022/10/29 10:12:37;;;;;;;2.03;1.40;;;15.40;99.90;;;;;;5023904;28;20101;-76
2022/10/29 10:15:22;;;;;;;0.32;0.32;;;15.40;99.90;;;;;;5022985;28;20567;-74
2022/10/29 10:18:01;;;;;;;10.20;4.03;;;15.60;99.90;;;;;;5023343;28;20069;-74
2022/10/29 10:20:31;;;;;;;2.35;1.50;;;15.70;99.90;;;;;;5003145;28;20541;-74
2022/10/29 10:22:57;;;;;;;1.83;1.23;;;15.70;99.90;;;;;;5016559;28;20536;-74
2022/10/29 10:25:36;;;;;;;4.07;3.28;;;15.70;99.90;;;;;;5022887;28;20088;-75
2022/10/29 10:28:15;;;;;;;1.33;1.17;;;15.60;99.90;;;;;;5023295;28;20558;-74
2022/10/29 10:30:42;;;;;;;1.52;1.42;;;15.50;99.90;;;;;;5022323;28;20045;-76
2022/10/29 10:33:25;;;;;;;0.47;0.47;;;15.80;99.90;;;;;;5022786;28;20057;-74
2022/10/29 10:35:51;;;;;;;3.17;1.75;;;15.60;99.90;;;;;;5022948;28;20050;-77
2022/10/29 10:38:18;;;;;;;2.08;1.60;;;15.70;99.90;;;;;;5023077;28;20045;-74
2022/10/29 10:40:54;;;;;;;1.67;1.42;;;15.70;99.90;;;;;;5023477;28;20053;-77
2022/10/29 10:43:22;;;;;;;1.65;1.55;;;15.80;99.90;;;;;;5023191;28;20057;-74
2022/10/29 10:45:57;;;;;;;2.15;0.98;;;16.10;99.90;;;;;;5023116;28;20053;-74
2022/10/29 10:48:26;;;;;;;1.13;1.02;;;16.40;99.90;;;;;;5023382;28;20104;-74
2022/10/29 10:51:23;;;;;;;0.77;0.40;;;16.60;99.90;;;;;;5023055;28;20037;-76
2022/10/29 10:53:50;;;;;;;3.75;2.15;;;16.70;99.90;;;;;;5022173;28;20041;-75
2022/10/29 10:56:19;;;;;;;1.50;1.38;;;16.70;99.90;;;;;;5022412;28;20484;-74
2022/10/29 10:59:10;;;;;;;3.65;1.40;;;16.80;99.90;;;;;;5022096;28;20056;-75
2022/10/29 11:01:45;;;;;;;1.50;1.25;;;17.00;99.90;;;;;;5021908;28;20103;-76
2022/10/29 11:04:15;;;;;;;2.40;1.98;;;17.20;99.90;;;;;;5022478;28;20060;-74
2022/10/29 11:06:45;;;;;;;0.68;0.68;;;17.30;99.90;;;;;;5022018;28;20083;-76
2022/10/29 11:09:21;;;;;;;2.53;1.40;;;17.70;99.90;;;;;;5023182;28;20041;-74
2022/10/29 11:11:50;;;;;;;;;;;18.00;99.90;;;;;;5023963;28;20277;-74
2022/10/29 11:14:29;;;;;;;1.20;0.85;;;17.90;99.90;;;;;;5023383;28;19924;-77
2022/10/29 11:16:58;;;;;;;3.67;2.25;;;18.30;99.90;;;;;;5024513;28;20081;-74
2022/10/29 11:19:31;;;;;;;2.95;1.50;;;18.20;84.40;;;;;;5024898;28;20163;-75
2022/10/29 11:22:00;;;;;;;1.58;1.05;;;18.40;99.90;;;;;;5024191;28;20053;-75
2022/10/29 11:24:34;;;;;;;1.70;1.27;;;18.50;99.90;;;;;;5025042;28;20049;-76
2022/10/29 11:27:09;;;;;;;2.75;2.08;;;18.50;99.90;;;;;;5028680;28;20096;-75
2022/10/29 11:30:00;;;;;;;0.98;0.77;;;18.70;99.90;;;;;;5028270;28;20501;-75
2022/10/29 11:32:55;;;;;;;1.02;0.80;;;18.70;1.00;;;;;;5029268;28;20049;-75
2022/10/29 11:35:45;;;;;;;0.55;0.55;;;18.90;99.90;;;;;;5030719;28;20103;-75
2022/10/29 11:38:22;;;;;;;1.58;1.20;;;18.90;38.20;;;;;;5030208;28;20079;-76
2022/10/29 11:41:06;;;;;;;1.27;0.93;;;18.70;1.00;;;;;;5030186;28;20071;-74
2022/10/29 11:43:32;;;;;;;18.50;1.25;;;18.90;52.50;;;;;;5028768;28;20509;-77
2022/10/29 11:46:20;;;;;;;2.15;1.23;;;19.20;6.80;;;;;;5028344;28;20060;-75
2022/10/29 11:49:04;;;;;;;0.70;0.70;;;19.30;1.00;;;;;;5031649;28;20408;-76
2022/10/29 11:51:50;;;;;;;0.68;0.68;;;19.50;99.90;;;;;;5035708;28;20057;-76
2022/10/29 11:54:36;;;;;;;0.57;0.57;;;19.90;1.00;;;;;;5034884;28;20034;-76
2022/10/29 11:57:29;;;;;;;1.92;1.42;;;20.20;99.90;;;;;;5034455;28;20575;-74
2022/10/29 11:59:55;;;;;;;1.08;0.75;;;20.00;99.90;;;;;;5035939;28;20045;-76
2022/10/29 12:02:46;;;;;;;3.67;2.15;;;20.00;1.00;;;;;;5033370;28;20060;-75
2022/10/29 12:05:29;;;;;;;1.23;0.98;;;20.20;1.00;;;;;;5033473;28;20081;-75
2022/10/29 12:08:15;;;;;;;1.83;1.30;;;20.40;99.90;;;;;;5035737;28;20037;-76
2022/10/29 12:11:07;;;;;;;2.72;1.33;;;20.30;99.90;;;;;;5039911;28;20060;-75
2022/10/29 12:13:59;;;;;;;0.90;0.50;;;20.00;99.90;;;;;;5033889;28;20060;-75
2022/10/29 12:16:30;;;;;;;0.63;0.60;;;20.00;1.00;;;;;;5036021;28;20063;-76
2022/10/29 12:19:26;;;;;;;1.13;0.90;;;19.90;1.00;;;;;;5036935;28;20064;-76
2022/10/29 12:22:23;;;;;;;2.15;1.70;;;19.90;65.20;;;;;;5038464;28;20065;-74
2022/10/29 12:25:02;;;;;;;3.33;0.85;;;19.90;32.20;;;;;;5038626;28;20048;-75
2022/10/29 12:27:40;;;;;;;5.75;2.03;;;20.00;99.90;;;;;;5036069;28;20061;-76
2022/10/29 12:30:09;;;;;;;1.83;0.98;;;19.80;1.00;;;;;;5040403;28;20053;-76
2022/10/29 12:33:06;;;;;;;1.65;0.82;;;19.70;99.90;;;;;;5038727;28;20056;-76
2022/10/29 12:36:04;;;;;;;1.15;1.05;;;19.70;99.90;;;;;;5039503;28;20614;-76
2022/10/29 12:38:54;;;;;;;1.10;0.82;;;19.70;99.90;;;;;;5035860;28;20060;-76
2022/10/29 12:41:24;;;;;;;7.25;2.35;;;19.60;99.90;;;;;;5036925;28;20045;-76
2022/10/29 12:43:53;;;;;;;0.52;0.52;;;19.60;99.90;;;;;;5036066;28;20049;-77
2022/10/29 12:46:41;;;;;;;0.75;0.73;;;19.80;99.90;;;;;;5039124;28;20041;-75
2022/10/29 12:49:38;;;;;;;1.27;1.17;;;20.10;1.00;;;;;;5041462;28;20078;-77
2022/10/29 12:52:23;;;;;;;8.90;1.08;;;20.40;99.90;;;;;;5042260;28;20025;-75
2022/10/29 12:54:51;;;;;;;4.75;2.33;;;20.80;99.90;;;;;;5037626;28;20050;-76
2022/10/29 12:57:16;;;;;;;1.45;0.75;;;20.70;1.00;;;;;;5040029;28;20042;-76
2022/10/29 12:59:43;;;;;;;3.80;1.40;;;21.00;1.00;;;;;;5041489;28;20105;-76
2022/10/29 13:02:37;;;;;;;1.00;0.52;;;21.00;1.00;;;;;;5032164;28;20041;-77
2022/10/29 13:05:08;;;;;;;3.70;1.25;;;20.60;1.00;;;;;;5018529;28;20075;-76
2022/10/29 13:07:57;;;;;;;2.03;1.10;;;20.50;99.90;;;;;;5018354;28;20046;-75
2022/10/29 13:10:28;;;;;;;1.10;1.00;;;20.20;99.90;;;;;;5016669;28;20049;-74